logo
Rechercher aéroport 
image banner adimage banner adimage banner ad
image banner ad

KMPI - Mariposa-Yosemite

Situé à Mariposa, United States

ICAO - MPI, IATA - RMY

Données fournies par Airmate  

Information générale

Coordonnées: N37°30'39" W120°2'22"
Élévation : 2254 feet MSL.
Variation magnétique : 15° East
Voir autres Aéroports à California

Données opérationnelles

Special qualification required
Heure actuelle UTC:
Heure actuelle locale:
Météo à : KMCE - Merced Rgnl/Macready Field ( 49 km )
METAR: KMCE 281153Z AUTO 26004KT 10SM CLR 16/08 A2995 RMK AO2 SLP142 T01610083 10217 20161 53007
TAF: KMCE 281120Z 2812/2912 33004KT P6SM SKC
Voir NOTAMs / SUP AIP / TFR affectant cet aéroport [VIEW]
Fréquences de communication: [VIEW]

Pistes:

Identifiant RWYQFULongueur (ft)Largeur (ft)SurfaceLDA (ft)
08100°330560ASPH
26280°330560ASPH

Coordonnées de l'aéroport

Adresse: Mariposa United States

Autres services d'aviation

Écoles de pilotage

Airborrn Aviation Services, Llc

Airborrn Aviation Services, Llc

Vue satellite de KMPI